Time;durP1;ratioP1;P1;durP2;ratioP2;P2;SDS_P1;SDS_P2;PMS_P1;PMS_P2;Temp;Humidity;BMP_temperature;BMP_pressure;BME280_temperature;BME280_humidity;BME280_pressure;Samples;Min_cycle;Max_cycle;Signal;HPM_P1;HPM_P2
2022/09/03 00:00:24;;;;;;;2.10;1.25;;;11.10;66.30;;;;;;5074854;28;20403;-70
2022/09/03 00:03:19;;;;;;;1.70;1.10;;;11.10;66.60;;;;;;5111507;28;20099;-69
2022/09/03 00:06:02;;;;;;;2.30;0.77;;;11.10;66.00;;;;;;5083535;28;20046;-70
2022/09/03 00:08:35;;;;;;;1.92;1.02;;;11.10;66.50;;;;;;5069329;28;20365;-70
2022/09/03 00:11:22;;;;;;;1.25;1.00;;;11.00;66.70;;;;;;5087524;28;20032;-70
2022/09/03 00:14:01;;;;;;;2.72;0.82;;;11.00;66.70;;;;;;5070481;28;20025;-69
2022/09/03 00:16:43;;;;;;;3.42;1.23;;;11.00;66.50;;;;;;5094927;28;20102;-70
2022/09/03 00:19:11;;;;;;;2.05;1.23;;;10.90;69.00;;;;;;5070165;28;20492;-70
2022/09/03 00:21:47;;;;;;;2.88;1.00;;;10.90;69.00;;;;;;5106855;28;20027;-70
2022/09/03 00:24:16;;;;;;;2.53;1.10;;;10.90;68.80;;;;;;5063817;28;20028;-70
2022/09/03 00:26:47;;;;;;;3.03;1.00;;;10.90;69.20;;;;;;5108775;28;20406;-70
2022/09/03 00:29:18;;;;;;;3.45;1.20;;;10.90;70.50;;;;;;5070140;28;20082;-70
2022/09/03 00:31:50;;;;;;;2.28;1.00;;;10.90;70.60;;;;;;5098624;28;20052;-70
2022/09/03 00:34:31;;;;;;;2.30;0.90;;;10.80;69.00;;;;;;5080469;28;20114;-70
2022/09/03 00:36:57;;;;;;;2.90;0.90;;;10.80;71.80;;;;;;5106998;28;20084;-70
2022/09/03 00:39:25;;;;;;;1.98;0.98;;;10.80;71.20;;;;;;5088664;28;20032;-70
2022/09/03 00:42:09;;;;;;;2.08;0.85;;;10.80;71.30;;;;;;5106560;28;20089;-69
2022/09/03 00:45:09;;;;;;;4.90;1.42;;;10.80;75.00;;;;;;5108779;28;20043;-70
2022/09/03 00:48:12;;;;;;;1.10;0.75;;;10.80;71.30;;;;;;5068728;28;20036;-70
2022/09/03 00:50:52;;;;;;;1.60;0.80;;;10.80;72.30;;;;;;5050539;28;20504;-70
2022/09/03 00:53:36;;;;;;;2.92;1.00;;;10.70;70.40;;;;;;5069725;28;20029;-70
2022/09/03 00:56:19;;;;;;;1.50;0.77;;;10.70;71.20;;;;;;5084574;28;20061;-70
2022/09/03 00:59:10;;;;;;;2.58;1.00;;;10.70;71.90;;;;;;5069840;28;20064;-70
2022/09/03 01:02:01;;;;;;;1.70;0.90;;;10.60;71.70;;;;;;5093796;28;20027;-70
2022/09/03 01:04:33;;;;;;;2.55;1.15;;;10.60;75.00;;;;;;5069792;28;20510;-70
2022/09/03 01:07:20;;;;;;;2.53;1.05;;;10.60;73.70;;;;;;5099719;28;20027;-70
2022/09/03 01:09:58;;;;;;;3.20;1.13;;;10.70;74.00;;;;;;5069455;28;20098;-70
2022/09/03 01:13:03;;;;;;;1.40;1.00;;;10.60;75.00;;;;;;5106699;28;20036;-70
2022/09/03 01:15:34;;;;;;;1.83;1.17;;;10.60;76.10;;;;;;5082629;28;20032;-70
2022/09/03 01:18:30;;;;;;;1.23;0.98;;;10.60;74.60;;;;;;5109885;28;20027;-70
2022/09/03 01:21:20;;;;;;;2.53;1.33;;;10.60;76.30;;;;;;5079660;28;20029;-69
2022/09/03 01:24:19;;;;;;;2.00;1.15;;;10.60;76.40;;;;;;5091147;28;20319;-70
2022/09/03 01:27:29;;;;;;;2.25;1.10;;;10.60;77.00;;;;;;5094625;28;20115;-70
2022/09/03 01:29:55;;;;;;;2.80;1.25;;;10.60;76.60;;;;;;5067777;28;20264;-70
2022/09/03 01:32:58;;;;;;;3.60;1.10;;;10.60;75.80;;;;;;5106443;28;20027;-70
2022/09/03 01:35:47;;;;;;;1.58;1.00;;;10.60;78.60;;;;;;5064137;28;20048;-70
2022/09/03 01:38:36;;;;;;;4.45;1.52;;;10.50;78.40;;;;;;5109503;28;20141;-70
2022/09/03 01:44:22;;;;;;;3.75;1.15;;;10.40;77.80;;;;;;5068889;28;20040;-69
2022/09/03 01:46:55;;;;;;;2.28;1.38;;;10.40;77.70;;;;;;5093697;28;20123;-70
2022/09/03 01:49:27;;;;;;;1.48;1.30;;;10.40;80.10;;;;;;5068930;28;20040;-70
2022/09/03 01:52:10;;;;;;;2.15;1.25;;;10.40;78.70;;;;;;5105727;28;20039;-70
2022/09/03 01:54:49;;;;;;;1.75;1.20;;;10.40;78.60;;;;;;5068854;28;20400;-70
2022/09/03 01:57:23;;;;;;;3.05;1.30;;;10.40;78.60;;;;;;5100982;28;20019;-71
2022/09/03 01:59:49;;;;;;;4.30;1.35;;;10.30;78.40;;;;;;5069141;28;20086;-70
2022/09/03 02:02:22;;;;;;;3.28;1.30;;;10.40;79.20;;;;;;5104169;28;20495;-70
2022/09/03 02:05:00;;;;;;;2.88;1.50;;;10.40;80.70;;;;;;5109039;28;20122;-70
2022/09/03 02:07:35;;;;;;;1.80;1.20;;;10.30;81.70;;;;;;5086730;28;20032;-70
2022/09/03 02:10:02;;;;;;;2.17;1.20;;;10.30;79.00;;;;;;5068481;28;20035;-70
2022/09/03 02:12:33;;;;;;;2.08;1.33;;;10.30;80.00;;;;;;5106374;28;20544;-71
2022/09/03 02:15:08;;;;;;;4.32;1.38;;;10.30;80.80;;;;;;5068638;28;20025;-70
2022/09/03 02:17:35;;;;;;;4.63;1.70;;;10.30;82.30;;;;;;5104773;28;20089;-71
2022/09/03 02:20:05;;;;;;;2.92;1.45;;;10.20;83.10;;;;;;5108765;28;20036;-70
2022/09/03 02:22:31;;;;;;;2.65;1.52;;;10.20;81.90;;;;;;5097278;28;20092;-70
2022/09/03 02:24:57;;;;;;;2.33;1.40;;;10.20;80.10;;;;;;5107590;28;20032;-70
2022/09/03 02:27:22;;;;;;;1.83;1.30;;;10.20;82.10;;;;;;5087097;28;20214;-70
2022/09/03 02:29:48;;;;;;;5.72;1.67;;;10.20;80.60;;;;;;5108063;28;20028;-70
2022/09/03 02:32:14;;;;;;;2.70;1.35;;;10.20;83.60;;;;;;5086673;28;20036;-70
2022/09/03 02:34:41;;;;;;;1.80;1.30;;;10.20;81.30;;;;;;5097506;28;20044;-70
2022/09/03 02:37:17;;;;;;;3.05;1.50;;;10.20;82.10;;;;;;5106308;28;20399;-70
2022/09/03 02:39:43;;;;;;;4.45;1.50;;;10.20;81.00;;;;;;5108591;28;20580;-70
2022/09/03 02:42:11;;;;;;;3.42;1.50;;;10.20;83.70;;;;;;5087002;28;20412;-70
2022/09/03 02:44:59;;;;;;;2.30;1.30;;;10.20;81.10;;;;;;5108504;28;20487;-70
2022/09/03 02:47:30;;;;;;;2.75;1.35;;;10.20;83.50;;;;;;5100225;28;20092;-71
2022/09/03 02:49:56;;;;;;;2.25;1.75;;;10.10;82.10;;;;;;5068166;28;20028;-70
2022/09/03 02:52:21;;;;;;;2.92;1.60;;;10.10;81.90;;;;;;5105687;28;20039;-70
2022/09/03 02:54:47;;;;;;;4.68;1.73;;;10.10;85.10;;;;;;5108587;28;20031;-69
2022/09/03 02:57:14;;;;;;;3.22;1.48;;;10.10;83.70;;;;;;5087008;28;20528;-70
2022/09/03 02:59:42;;;;;;;4.93;1.67;;;10.10;84.70;;;;;;5108203;28;20032;-70
2022/09/03 03:02:08;;;;;;;1.90;1.30;;;10.00;83.70;;;;;;5086605;28;20346;-70
2022/09/03 03:04:34;;;;;;;2.65;1.38;;;10.00;82.80;;;;;;5107939;28;20314;-70
2022/09/03 03:06:59;;;;;;;1.73;1.13;;;10.00;83.70;;;;;;5086978;28;20471;-70
2022/09/03 03:09:25;;;;;;;1.80;1.52;;;10.00;85.90;;;;;;5107719;28;20032;-70
2022/09/03 03:11:54;;;;;;;1.92;1.50;;;10.10;85.10;;;;;;5085732;28;20028;-70
2022/09/03 03:14:20;;;;;;;3.55;1.55;;;10.10;84.90;;;;;;5107944;28;20069;-70
2022/09/03 03:16:45;;;;;;;2.70;1.52;;;10.10;85.20;;;;;;5100821;28;20047;-70
2022/09/03 03:19:11;;;;;;;3.10;1.60;;;10.10;85.30;;;;;;5092200;28;20066;-70
2022/09/03 03:21:37;;;;;;;4.32;1.70;;;10.20;84.50;;;;;;5109447;28;20163;-70
2022/09/03 03:24:03;;;;;;;5.40;1.85;;;10.30;84.70;;;;;;5089153;28;20024;-57
2022/09/03 03:26:28;;;;;;;4.28;1.70;;;10.40;84.10;;;;;;5109205;28;20460;-58
2022/09/03 03:29:00;;;;;;;3.65;2.30;;;10.40;84.30;;;;;;5090565;28;20028;-57
2022/09/03 03:31:26;;;;;;;3.13;1.70;;;10.50;83.60;;;;;;5109595;28;20395;-56
2022/09/03 03:34:02;;;;;;;2.45;1.70;;;10.50;83.70;;;;;;5107950;28;20506;-70
2022/09/03 03:36:30;;;;;;;2.60;1.90;;;10.60;83.00;;;;;;5096912;28;20444;-70
2022/09/03 03:38:58;;;;;;;3.13;1.92;;;10.70;83.40;;;;;;5110300;28;20387;-70
2022/09/03 03:41:26;;;;;;;2.55;1.58;;;10.70;83.10;;;;;;5096439;28;20397;-70
2022/09/03 03:43:54;;;;;;;4.43;2.00;;;10.80;83.40;;;;;;5111708;28;20140;-70
2022/09/03 03:46:21;;;;;;;2.90;1.88;;;10.80;83.30;;;;;;5095072;28;20062;-70
2022/09/03 03:48:51;;;;;;;5.18;1.83;;;10.80;83.90;;;;;;5111571;28;20112;-70
2022/09/03 03:51:17;;;;;;;1.95;1.58;;;10.90;83.60;;;;;;5095042;28;20773;-70
2022/09/03 03:53:43;;;;;;;3.28;2.25;;;10.90;84.50;;;;;;5111414;28;20032;-71
2022/09/03 03:56:11;;;;;;;2.50;1.90;;;11.00;84.80;;;;;;5093877;28;20398;-70
2022/09/03 03:58:41;;;;;;;3.28;2.00;;;11.00;83.80;;;;;;5111428;28;20387;-70
2022/09/03 04:01:18;;;;;;;5.78;1.77;;;11.00;84.90;;;;;;5092765;28;20502;-70
2022/09/03 04:03:44;;;;;;;3.10;2.10;;;11.00;85.60;;;;;;5111305;28;20114;-70
2022/09/03 04:06:12;;;;;;;2.78;1.85;;;11.00;86.10;;;;;;5093570;28;20031;-70
2022/09/03 04:08:40;;;;;;;5.93;1.60;;;11.00;86.20;;;;;;5111275;28;20647;-71
2022/09/03 04:11:08;;;;;;;2.97;1.35;;;10.90;87.50;;;;;;5092274;28;20038;-70
2022/09/03 04:13:37;;;;;;;2.03;1.55;;;10.90;87.80;;;;;;5111190;28;20055;-70
2022/09/03 04:16:05;;;;;;;2.28;1.63;;;10.90;89.80;;;;;;5090498;28;20733;-70
2022/09/03 04:18:32;;;;;;;2.38;1.67;;;10.90;90.00;;;;;;5111157;28;20027;-70
2022/09/03 04:21:03;;;;;;;3.78;2.20;;;10.80;90.70;;;;;;5091178;28;20215;-70
2022/09/03 04:23:33;;;;;;;4.03;1.90;;;10.80;89.70;;;;;;5093768;28;20032;-70
2022/09/03 04:25:59;;;;;;;4.22;1.73;;;10.80;91.80;;;;;;5107898;28;20118;-70
2022/09/03 04:28:25;;;;;;;5.18;2.17;;;10.80;90.60;;;;;;5110958;28;20099;-70
2022/09/03 04:30:51;;;;;;;3.03;1.98;;;10.80;92.30;;;;;;5089691;28;20036;-70
2022/09/03 04:33:17;;;;;;;3.72;1.90;;;10.80;91.80;;;;;;5110800;28;20031;-70
2022/09/03 04:35:42;;;;;;;3.40;2.13;;;10.80;91.50;;;;;;5090769;28;20055;-71
2022/09/03 04:38:08;;;;;;;5.07;2.03;;;10.70;92.60;;;;;;5108028;28;20377;-70
2022/09/03 04:40:33;;;;;;;5.13;2.15;;;10.80;93.00;;;;;;5085963;28;20039;-70
2022/09/03 04:42:59;;;;;;;4.05;2.10;;;10.80;92.90;;;;;;5084967;28;20020;-70
2022/09/03 04:45:27;;;;;;;4.53;1.80;;;10.80;93.90;;;;;;5106698;28;20103;-70
2022/09/03 04:47:59;;;;;;;3.60;1.88;;;10.80;94.10;;;;;;5093059;28;20094;-70
2022/09/03 04:50:26;;;;;;;3.03;2.05;;;10.80;94.50;;;;;;5107837;28;20028;-70
2022/09/03 04:52:58;;;;;;;5.05;1.88;;;10.80;94.50;;;;;;5085875;28;20032;-71
2022/09/03 04:55:24;;;;;;;5.22;1.95;;;10.80;94.70;;;;;;5084414;28;20073;-55
2022/09/03 04:57:50;;;;;;;3.85;1.63;;;10.90;94.40;;;;;;5099477;28;20051;-68
2022/09/03 05:00:17;;;;;;;3.85;2.08;;;10.90;94.40;;;;;;5082041;28;20089;-62
2022/09/03 05:02:45;;;;;;;3.17;1.90;;;10.90;94.80;;;;;;5084976;28;20020;-62
2022/09/03 05:05:12;;;;;;;3.28;1.77;;;10.90;94.60;;;;;;5087341;28;20020;-62
2022/09/03 05:07:37;;;;;;;4.00;1.90;;;11.00;94.30;;;;;;5105179;28;20106;-63
2022/09/03 05:10:05;;;;;;;4.03;2.13;;;11.10;94.00;;;;;;5096283;28;20403;-63
2022/09/03 05:12:32;;;;;;;3.20;1.98;;;11.10;93.50;;;;;;5084600;28;20470;-63
2022/09/03 05:14:58;;;;;;;4.40;2.13;;;11.30;92.70;;;;;;5092065;28;20679;-63
2022/09/03 05:17:24;;;;;;;4.47;1.95;;;11.80;91.60;;;;;;5104863;28;20427;-63
2022/09/03 05:19:49;;;;;;;2.95;1.70;;;12.60;83.90;;;;;;5086719;28;20039;-63
2022/09/03 05:22:20;;;;;;;4.63;2.17;;;13.60;73.50;;;;;;5086852;28;20511;-60
2022/09/03 05:24:48;;;;;;;2.47;1.50;;;14.30;65.10;;;;;;5091156;28;20036;-63
2022/09/03 05:27:17;;;;;;;3.10;1.33;;;15.10;64.70;;;;;;5104911;28;20118;-64
2022/09/03 05:29:44;;;;;;;2.80;1.75;;;15.60;59.60;;;;;;5087186;28;20032;-64
2022/09/03 05:32:11;;;;;;;2.70;1.58;;;16.10;53.30;;;;;;5104811;28;20024;-64
2022/09/03 05:34:36;;;;;;;2.00;1.50;;;16.70;52.60;;;;;;5095751;28;20041;-64
2022/09/03 05:37:02;;;;;;;2.08;1.50;;;17.00;47.20;;;;;;5093754;28;20106;-65
2022/09/03 05:39:27;;;;;;;2.00;1.35;;;16.70;50.50;;;;;;5087032;28;20032;-65
2022/09/03 05:41:53;;;;;;;3.42;1.88;;;16.10;49.90;;;;;;5094155;28;20030;-65
2022/09/03 05:44:22;;;;;;;2.47;1.73;;;15.30;52.60;;;;;;5080967;28;20425;-65
2022/09/03 05:46:47;;;;;;;4.47;1.50;;;14.70;57.20;;;;;;5104624;28;20091;-64
2022/09/03 05:49:13;;;;;;;5.57;1.70;;;14.40;59.00;;;;;;5107259;28;20555;-65
2022/09/03 05:51:38;;;;;;;2.30;1.60;;;13.90;62.20;;;;;;5090267;28;20053;-65
2022/09/03 05:54:06;;;;;;;3.35;1.70;;;13.70;64.80;;;;;;5107082;28;20032;-65
2022/09/03 05:56:34;;;;;;;3.17;1.73;;;13.70;65.20;;;;;;5089114;28;20024;-65
2022/09/03 05:59:04;;;;;;;4.07;2.10;;;13.60;66.20;;;;;;5105110;28;20024;-64
2022/09/03 06:01:32;;;;;;;3.35;1.90;;;13.50;67.00;;;;;;5072185;28;20051;-65
2022/09/03 06:04:00;;;;;;;4.28;2.00;;;13.50;67.00;;;;;;5100931;28;20020;-65
2022/09/03 06:06:30;;;;;;;2.75;1.55;;;13.40;68.50;;;;;;5093862;28;20474;-65
2022/09/03 06:09:01;;;;;;;4.55;1.77;;;13.40;68.90;;;;;;5089518;28;20024;-64
2022/09/03 06:11:28;;;;;;;2.25;1.80;;;13.60;68.90;;;;;;5077843;28;20023;-64
2022/09/03 06:14:00;;;;;;;3.00;1.60;;;13.80;66.70;;;;;;5106781;28;20055;-64
2022/09/03 06:16:26;;;;;;;3.17;1.80;;;13.90;65.70;;;;;;5087084;28;20479;-64
2022/09/03 06:18:52;;;;;;;4.00;1.88;;;14.00;64.30;;;;;;5106874;28;20024;-64
2022/09/03 06:21:18;;;;;;;4.68;1.45;;;13.80;65.90;;;;;;5084690;28;20032;-64
2022/09/03 06:23:50;;;;;;;3.05;1.85;;;13.80;66.40;;;;;;5092148;28;20093;-64
2022/09/03 06:26:17;;;;;;;3.58;1.90;;;13.90;65.70;;;;;;5078548;28;20098;-64
2022/09/03 06:28:43;;;;;;;3.83;1.80;;;14.40;62.40;;;;;;5105144;28;20023;-65
2022/09/03 06:31:11;;;;;;;3.60;1.77;;;15.10;59.60;;;;;;5084970;28;20034;-65
2022/09/03 06:33:38;;;;;;;3.38;1.50;;;16.40;53.00;;;;;;5071779;28;20024;-65
2022/09/03 06:36:06;;;;;;;3.58;1.83;;;17.70;44.10;;;;;;5096139;28;20024;-65
2022/09/03 06:38:36;;;;;;;4.78;1.40;;;18.20;44.60;;;;;;5106652;28;20035;-65
2022/09/03 06:41:05;;;;;;;2.40;1.10;;;18.80;40.70;;;;;;5068408;28;20029;-65
2022/09/03 06:43:33;;;;;;;2.78;1.55;;;20.10;39.20;;;;;;5106681;28;20080;-65
2022/09/03 06:46:01;;;;;;;1.92;1.63;;;20.20;31.10;;;;;;5108796;28;20030;-65
2022/09/03 06:48:28;;;;;;;27.88;1.80;;;19.30;31.40;;;;;;5088141;28;20062;-66
2022/09/03 06:50:58;;;;;;;2.55;1.30;;;19.20;33.80;;;;;;5112506;28;20387;-66
2022/09/03 06:53:26;;;;;;;2.30;1.48;;;19.20;35.70;;;;;;5090443;28;20495;-66
2022/09/03 06:55:53;;;;;;;3.15;1.90;;;19.00;34.90;;;;;;5110955;28;20015;-65
2022/09/03 06:58:18;;;;;;;8.02;1.70;;;19.30;33.40;;;;;;5090675;28;20031;-66
2022/09/03 07:00:44;;;;;;;3.17;1.40;;;20.10;29.30;;;;;;5095065;28;20032;-65
2022/09/03 07:03:09;;;;;;;5.50;2.10;;;19.20;31.70;;;;;;5109952;28;20032;-65
2022/09/03 07:05:36;;;;;;;2.88;1.67;;;18.60;33.00;;;;;;5112298;28;20449;-65
2022/09/03 07:08:01;;;;;;;4.85;1.83;;;18.00;36.10;;;;;;5090599;27;20435;-65
2022/09/03 07:10:27;;;;;;;4.30;1.60;;;17.50;37.60;;;;;;5110563;28;20032;-65
2022/09/03 07:12:54;;;;;;;3.63;1.70;;;17.60;38.10;;;;;;5090707;28;20103;-64
2022/09/03 07:15:20;;;;;;;3.80;1.60;;;17.70;39.50;;;;;;5111839;28;20560;-64
2022/09/03 07:17:46;;;;;;;1.88;1.30;;;17.70;39.10;;;;;;5090522;28;20054;-65
2022/09/03 07:20:11;;;;;;;2.65;1.52;;;18.10;39.10;;;;;;5091823;28;20024;-65
2022/09/03 07:22:37;;;;;;;3.03;1.30;;;18.20;37.50;;;;;;5102073;28;20038;-65
2022/09/03 07:25:02;;;;;;;4.38;1.83;;;18.50;36.80;;;;;;5088956;28;20128;-65
2022/09/03 07:27:29;;;;;;;3.10;1.52;;;18.50;37.70;;;;;;5109673;28;20036;-65
2022/09/03 07:29:54;;;;;;;3.72;1.50;;;19.00;35.90;;;;;;5092032;28;20063;-65
2022/09/03 07:32:20;;;;;;;2.42;1.65;;;19.40;34.30;;;;;;5109447;28;20058;-65
2022/09/03 07:34:45;;;;;;;2.85;1.52;;;19.00;33.70;;;;;;5102863;28;20560;-65
2022/09/03 07:37:11;;;;;;;2.30;1.58;;;18.80;34.70;;;;;;5095598;28;20131;-65
2022/09/03 07:39:36;;;;;;;2.67;1.65;;;18.50;35.30;;;;;;5111991;28;20069;-65
2022/09/03 07:42:02;;;;;;;2.80;1.52;;;18.50;34.80;;;;;;5095423;28;20027;-65
2022/09/03 07:44:28;;;;;;;2.10;1.45;;;18.20;36.80;;;;;;5111890;28;20020;-66
2022/09/03 07:46:54;;;;;;;2.00;1.50;;;18.00;36.80;;;;;;5093805;28;20391;-65
2022/09/03 07:49:20;;;;;;;3.75;1.50;;;18.30;37.10;;;;;;5111926;28;20102;-65
2022/09/03 07:51:49;;;;;;;2.13;1.52;;;18.60;37.10;;;;;;5092646;28;20100;-66
2022/09/03 07:54:14;;;;;;;3.25;1.83;;;18.60;37.10;;;;;;5111634;28;20031;-65
2022/09/03 07:56:40;;;;;;;2.25;1.27;;;18.40;35.40;;;;;;5091410;28;20040;-65
2022/09/03 07:59:06;;;;;;;1.88;1.10;;;18.60;37.20;;;;;;5111584;28;20036;-65
2022/09/03 08:01:33;;;;;;;7.25;1.65;;;18.60;35.20;;;;;;5089409;28;20484;-65
2022/09/03 08:03:59;;;;;;;5.15;1.50;;;18.50;34.30;;;;;;5110250;28;20103;-65
2022/09/03 08:06:27;;;;;;;2.47;1.60;;;18.60;35.80;;;;;;5090792;28;20036;-65
2022/09/03 08:08:57;;;;;;;2.80;1.90;;;18.80;34.70;;;;;;5108933;28;20083;-65
2022/09/03 08:11:24;;;;;;;2.25;1.52;;;18.90;35.20;;;;;;5091080;28;20027;-65
2022/09/03 08:13:59;;;;;;;3.75;1.50;;;19.10;32.90;;;;;;5108722;28;20040;-65
2022/09/03 08:16:25;;;;;;;2.40;1.42;;;19.20;32.30;;;;;;5070549;28;20025;-65
2022/09/03 08:18:51;;;;;;;2.05;1.15;;;19.40;33.20;;;;;;5108050;28;20035;-65
2022/09/03 08:21:18;;;;;;;3.88;1.50;;;19.80;30.40;;;;;;5091245;28;20428;-65
2022/09/03 08:23:46;;;;;;;2.33;1.48;;;19.60;30.90;;;;;;5102091;28;20718;-65
2022/09/03 08:26:13;;;;;;;3.25;1.65;;;19.60;31.50;;;;;;5110959;28;20395;-65
2022/09/03 08:28:40;;;;;;;4.00;1.55;;;19.60;30.20;;;;;;5089192;27;20089;-65
2022/09/03 08:31:10;;;;;;;2.38;1.70;;;19.90;29.10;;;;;;5110474;28;20092;-65
2022/09/03 08:33:42;;;;;;;2.75;1.60;;;19.80;29.70;;;;;;5102519;28;20051;-65
2022/09/03 08:36:14;;;;;;;3.80;1.48;;;19.90;30.00;;;;;;5110873;28;20568;-65
2022/09/03 08:38:41;;;;;;;1.50;1.20;;;20.20;29.00;;;;;;5103375;28;20039;-66
2022/09/03 08:41:17;;;;;;;5.07;1.85;;;20.30;29.30;;;;;;5109214;28;20114;-65
2022/09/03 08:44:00;;;;;;;1.92;1.33;;;20.40;28.20;;;;;;5104295;28;20031;-65
2022/09/03 08:46:37;;;;;;;2.38;1.65;;;20.40;28.90;;;;;;5069866;28;20056;-65
2022/09/03 08:49:04;;;;;;;1.40;0.73;;;20.40;26.80;;;;;;5069800;28;20036;-65
2022/09/03 08:51:32;;;;;;;2.72;1.40;;;20.40;26.60;;;;;;5109436;28;20023;-65
2022/09/03 08:53:59;;;;;;;1.70;1.20;;;20.30;27.70;;;;;;5088391;28;20024;-65
2022/09/03 08:56:27;;;;;;;2.25;1.30;;;20.20;27.00;;;;;;5109949;28;20032;-65
2022/09/03 08:58:54;;;;;;;2.50;1.40;;;20.20;28.10;;;;;;5088145;28;20042;-65
2022/09/03 09:01:38;;;;;;;3.03;1.50;;;20.40;28.10;;;;;;5109473;28;20027;-65
2022/09/03 09:04:23;;;;;;;3.65;1.73;;;20.70;25.20;;;;;;5102087;28;20028;-66
2022/09/03 09:07:09;;;;;;;2.53;1.50;;;20.60;25.30;;;;;;5069808;28;20389;-65
2022/09/03 09:09:41;;;;;;;1.17;1.02;;;20.60;26.30;;;;;;5110434;28;20077;-66
2022/09/03 09:12:17;;;;;;;2.42;1.08;;;21.00;24.40;;;;;;5090559;28;20070;-65
2022/09/03 09:15:01;;;;;;;1.70;1.30;;;21.20;25.20;;;;;;5110327;28;20016;-65
2022/09/03 09:18:10;;;;;;;3.72;1.20;;;21.30;23.80;;;;;;5078890;28;20024;-66
2022/09/03 09:20:53;;;;;;;3.35;1.25;;;21.40;24.60;;;;;;5088920;28;20115;-65
2022/09/03 09:23:34;;;;;;;1.95;1.15;;;21.60;22.90;;;;;;5087987;28;20487;-65
2022/09/03 09:26:08;;;;;;;2.90;1.40;;;21.80;21.80;;;;;;5069366;28;20029;-65
2022/09/03 09:28:36;;;;;;;2.40;1.52;;;21.90;22.00;;;;;;5098233;28;20387;-66
2022/09/03 09:31:04;;;;;;;2.95;1.30;;;21.80;20.30;;;;;;5109563;28;20388;-65
2022/09/03 09:33:31;;;;;;;1.15;1.02;;;21.80;18.90;;;;;;5088136;28;20028;-65
2022/09/03 09:36:02;;;;;;;4.97;1.65;;;22.00;20.70;;;;;;5109815;28;20058;-65
2022/09/03 09:38:37;;;;;;;1.38;1.08;;;21.90;18.10;;;;;;5095719;28;20042;-65
2022/09/03 09:41:10;;;;;;;3.20;1.25;;;21.90;19.10;;;;;;5076073;28;20089;-65
2022/09/03 09:43:37;;;;;;;2.38;1.20;;;21.70;18.50;;;;;;5087370;28;20027;-65
2022/09/03 09:46:21;;;;;;;4.35;1.40;;;21.70;19.50;;;;;;5109045;28;20042;-66
2022/09/03 09:48:55;;;;;;;4.10;1.40;;;21.80;19.10;;;;;;5100214;28;20043;-65
2022/09/03 09:51:29;;;;;;;3.00;1.55;;;22.00;19.60;;;;;;5109284;28;20036;-66
2022/09/03 09:54:18;;;;;;;2.58;1.40;;;22.10;16.40;;;;;;5087385;28;20023;-65
2022/09/03 09:56:45;;;;;;;2.75;1.20;;;22.00;14.80;;;;;;5069052;28;20028;-65
2022/09/03 09:59:13;;;;;;;7.15;1.20;;;21.80;14.20;;;;;;5106157;28;20038;-65
2022/09/03 10:01:41;;;;;;;3.83;1.45;;;21.50;15.50;;;;;;5108933;28;20050;-65
2022/09/03 10:04:23;;;;;;;1.77;1.20;;;21.50;14.70;;;;;;5087124;28;20054;-64
2022/09/03 10:06:58;;;;;;;4.95;1.27;;;21.50;14.80;;;;;;5068451;28;20024;-64
2022/09/03 10:09:30;;;;;;;4.32;1.10;;;21.60;15.40;;;;;;5068641;28;20040;-65
2022/09/03 10:12:23;;;;;;;3.03;1.30;;;21.60;15.50;;;;;;5067296;28;20043;-64
2022/09/03 10:15:31;;;;;;;2.53;1.00;;;21.80;16.80;;;;;;5109020;28;20016;-64
2022/09/03 10:18:15;;;;;;;9.70;1.50;;;21.70;15.30;;;;;;5084073;28;20020;-65
2022/09/03 10:20:53;;;;;;;2.42;1.20;;;21.70;16.10;;;;;;5068606;28;20066;-65
2022/09/03 10:23:27;;;;;;;3.03;1.08;;;21.50;16.40;;;;;;5083134;28;20034;-65
2022/09/03 10:25:55;;;;;;;2.25;1.48;;;21.50;14.10;;;;;;5093163;28;20625;-64
2022/09/03 10:28:25;;;;;;;1.08;0.90;;;21.50;13.60;;;;;;5100067;28;20045;-64
2022/09/03 10:31:17;;;;;;;5.22;1.40;;;21.50;14.70;;;;;;5093674;28;20115;-64
2022/09/03 10:33:50;;;;;;;1.45;1.13;;;21.40;13.90;;;;;;5097515;28;20046;-64
2022/09/03 10:36:25;;;;;;;3.58;1.25;;;21.10;15.10;;;;;;5093260;28;20021;-64
2022/09/03 10:39:18;;;;;;;2.03;1.20;;;21.20;15.00;;;;;;5103932;28;20487;-64
2022/09/03 10:42:03;;;;;;;4.43;1.55;;;21.40;15.40;;;;;;5066675;28;20044;-65
2022/09/03 10:44:57;;;;;;;2.83;1.27;;;21.30;14.60;;;;;;5069885;28;20076;-65
2022/09/03 10:47:50;;;;;;;2.13;0.98;;;21.40;13.40;;;;;;5071603;28;20035;-65
2022/09/03 10:50:45;;;;;;;1.80;1.33;;;21.40;13.50;;;;;;5088403;28;20509;-64
2022/09/03 10:53:17;;;;;;;5.00;1.30;;;21.40;13.20;;;;;;5086611;28;20564;-64
2022/09/03 10:56:04;;;;;;;3.20;1.23;;;21.40;13.60;;;;;;5067751;28;20032;-64
2022/09/03 10:58:55;;;;;;;2.50;1.10;;;21.70;12.40;;;;;;5091888;28;20031;-64
2022/09/03 11:01:31;;;;;;;2.08;1.05;;;21.80;12.50;;;;;;5086699;28;20232;-59
2022/09/03 11:04:16;;;;;;;;;;;21.80;12.60;;;;;;5099342;28;20173;-74
2022/09/03 11:06:53;;;;;;;1.77;1.40;;;21.90;13.00;;;;;;5084466;28;19925;-73
2022/09/03 11:09:42;;;;;;;3.45;1.30;;;21.70;12.30;;;;;;5072547;28;20032;-74
2022/09/03 11:12:12;;;;;;;5.82;1.33;;;21.70;12.70;;;;;;5107844;28;20067;-73
2022/09/03 11:14:43;;;;;;;3.38;1.55;;;21.60;13.60;;;;;;5095430;28;20036;-73
2022/09/03 11:17:21;;;;;;;2.65;1.20;;;21.70;13.40;;;;;;5081575;28;20059;-73
2022/09/03 11:19:51;;;;;;;1.17;1.00;;;21.90;13.80;;;;;;5090089;28;20052;-74
2022/09/03 11:22:19;;;;;;;2.10;1.20;;;22.00;14.30;;;;;;5074317;28;20114;-74
2022/09/03 11:24:57;;;;;;;1.33;1.23;;;21.80;12.70;;;;;;5092664;28;20020;-74
2022/09/03 11:27:40;;;;;;;5.43;1.58;;;21.50;13.20;;;;;;5092547;28;20035;-74
2022/09/03 11:30:21;;;;;;;1.80;1.40;;;21.40;14.30;;;;;;5111508;28;20051;-72
2022/09/03 11:32:54;;;;;;;3.75;1.00;;;21.10;13.40;;;;;;5094933;28;20020;-59
2022/09/03 11:35:36;;;;;;;1.50;0.82;;;21.20;14.60;;;;;;5090401;28;20040;-58
2022/09/03 11:38:22;;;;;;;3.20;1.38;;;21.40;14.10;;;;;;5086102;28;20402;-57
2022/09/03 11:41:14;;;;;;;4.05;1.20;;;21.40;13.60;;;;;;5085450;28;20028;-59
2022/09/03 11:43:41;;;;;;;1.45;1.02;;;21.50;14.40;;;;;;5089812;28;20254;-58
2022/09/03 11:46:27;;;;;;;1.27;0.90;;;21.60;13.30;;;;;;5110956;28;20479;-59
2022/09/03 11:49:08;;;;;;;;;;;21.70;9.90;;;;;;5097752;28;20045;-58
2022/09/03 11:51:36;;;;;;;1.23;0.90;;;21.50;9.20;;;;;;5071177;28;19963;-58
2022/09/03 11:54:24;;;;;;;3.60;0.93;;;21.40;11.30;;;;;;5108721;28;20031;-58
2022/09/03 11:56:50;;;;;;;2.35;1.05;;;21.50;9.70;;;;;;5070534;28;20025;-55
2022/09/03 11:59:22;;;;;;;1.80;1.00;;;21.60;9.30;;;;;;5108654;28;20487;-57
2022/09/03 12:01:52;;;;;;;2.75;0.90;;;21.70;9.30;;;;;;5070968;28;20465;-59
2022/09/03 12:04:21;;;;;;;2.25;1.23;;;21.80;7.70;;;;;;5108640;28;20024;-58
2022/09/03 12:07:10;;;;;;;1.85;1.10;;;21.70;8.20;;;;;;5110545;28;20087;-57
2022/09/03 12:10:13;;;;;;;1.30;1.00;;;21.60;7.70;;;;;;5107263;28;20156;-58
2022/09/03 12:13:01;;;;;;;0.80;0.80;;;21.30;8.80;;;;;;5074172;28;20031;-58
2022/09/03 12:15:46;;;;;;;2.05;0.95;;;21.20;9.00;;;;;;5110689;28;20024;-58
2022/09/03 12:18:21;;;;;;;1.92;1.15;;;21.10;10.00;;;;;;5082989;28;20101;-57
2022/09/03 12:20:59;;;;;;;4.43;0.98;;;21.20;9.50;;;;;;5110901;28;20552;-58
2022/09/03 12:23:48;;;;;;;1.85;0.93;;;21.40;9.30;;;;;;5085062;28;20503;-59
2022/09/03 12:26:22;;;;;;;1.63;1.10;;;21.50;9.10;;;;;;5069911;28;20216;-58
2022/09/03 12:28:50;;;;;;;2.92;0.90;;;21.60;8.90;;;;;;5092340;28;20034;-58
2022/09/03 12:31:22;;;;;;;2.80;0.90;;;21.80;9.00;;;;;;5110629;28;20394;-59
2022/09/03 12:33:50;;;;;;;1.17;0.82;;;21.90;8.80;;;;;;5089046;28;20043;-58
2022/09/03 12:36:16;;;;;;;3.33;1.20;;;21.80;9.30;;;;;;5090249;28;20066;-59
2022/09/03 12:38:41;;;;;;;2.47;1.00;;;21.70;9.20;;;;;;5107616;28;20028;-58
2022/09/03 12:41:25;;;;;;;1.00;0.90;;;21.60;9.10;;;;;;5090603;28;20031;-58
2022/09/03 12:43:54;;;;;;;2.10;1.00;;;21.50;9.50;;;;;;5092144;28;20554;-58
2022/09/03 12:46:27;;;;;;;3.20;1.35;;;21.50;9.70;;;;;;5089466;28;20081;-59
2022/09/03 12:49:02;;;;;;;0.88;0.80;;;21.20;9.10;;;;;;5092286;28;20031;-59
2022/09/03 12:51:38;;;;;;;0.83;0.60;;;21.20;9.30;;;;;;5069382;28;20032;-59
2022/09/03 12:54:08;;;;;;;1.08;0.80;;;21.20;9.50;;;;;;5107894;28;20059;-57
2022/09/03 12:56:35;;;;;;;1.70;1.20;;;21.30;9.60;;;;;;5109692;28;20502;-58
2022/09/03 12:59:07;;;;;;;1.17;0.80;;;21.40;9.60;;;;;;5088174;28;20391;-56
2022/09/03 13:01:42;;;;;;;2.83;1.20;;;21.30;9.60;;;;;;5069558;28;20033;-58
2022/09/03 13:04:16;;;;;;;4.13;1.00;;;21.30;9.70;;;;;;5095564;28;20036;-56
2022/09/03 13:06:55;;;;;;;2.30;1.00;;;21.20;9.60;;;;;;5069418;28;20047;-58
2022/09/03 13:09:25;;;;;;;1.45;0.88;;;21.30;9.80;;;;;;5098643;28;20027;-58
2022/09/03 13:11:54;;;;;;;1.63;1.20;;;21.40;9.80;;;;;;5109568;28;20030;-58
2022/09/03 13:14:20;;;;;;;1.67;1.10;;;21.60;9.60;;;;;;5087658;28;20115;-58
2022/09/03 13:16:45;;;;;;;2.40;1.02;;;21.80;8.70;;;;;;5107617;28;20031;-58
2022/09/03 13:19:31;;;;;;;1.38;0.93;;;22.00;8.30;;;;;;5087795;28;20466;-58